sensor_id;sensor_type;location;lat;lon;timestamp;pressure;altitude;pressure_sealevel;temperature;humidity
29045;BME280;16133;49.486;12.176;2023-04-22T00:01:50;96943.09;;;5.26;100.00
29045;BME280;16133;49.486;12.176;2023-04-22T00:04:15;96941.44;;;5.25;100.00
29045;BME280;16133;49.486;12.176;2023-04-22T00:06:41;96941.44;;;5.17;100.00
29045;BME280;16133;49.486;12.176;2023-04-22T00:09:07;96934.28;;;5.10;100.00
29045;BME280;16133;49.486;12.176;2023-04-22T00:11:32;96938.03;;;4.99;100.00
29045;BME280;16133;49.486;12.176;2023-04-22T00:13:57;96932.44;;;4.94;100.00
29045;BME280;16133;49.486;12.176;2023-04-22T00:16:23;96925.84;;;4.90;100.00
29045;BME280;16133;49.486;12.176;2023-04-22T00:18:50;96930.41;;;4.88;100.00
29045;BME280;16133;49.486;12.176;2023-04-22T00:21:15;96931.03;;;4.82;100.00
29045;BME280;16133;49.486;12.176;2023-04-22T00:23:41;96923.75;;;4.76;100.00
29045;BME280;16133;49.486;12.176;2023-04-22T00:26:09;96919.66;;;4.73;100.00
29045;BME280;16133;49.486;12.176;2023-04-22T00:28:34;96918.81;;;4.73;100.00
29045;BME280;16133;49.486;12.176;2023-04-22T00:31:00;96913.19;;;4.68;100.00
29045;BME280;16133;49.486;12.176;2023-04-22T00:33:27;96914.66;;;4.62;100.00
29045;BME280;16133;49.486;12.176;2023-04-22T00:35:52;96912.50;;;4.58;100.00
29045;BME280;16133;49.486;12.176;2023-04-22T00:38:19;96920.00;;;4.53;100.00
29045;BME280;16133;49.486;12.176;2023-04-22T00:40:44;96922.28;;;4.48;100.00
29045;BME280;16133;49.486;12.176;2023-04-22T00:43:11;96928.97;;;4.42;100.00
29045;BME280;16133;49.486;12.176;2023-04-22T00:45:38;96931.06;;;4.39;100.00
29045;BME280;16133;49.486;12.176;2023-04-22T00:48:03;96920.06;;;4.35;100.00
29045;BME280;16133;49.486;12.176;2023-04-22T00:50:29;96919.53;;;4.31;100.00
29045;BME280;16133;49.486;12.176;2023-04-22T00:52:54;96918.56;;;4.32;100.00
29045;BME280;16133;49.486;12.176;2023-04-22T00:55:20;96914.72;;;4.27;100.00
29045;BME280;16133;49.486;12.176;2023-04-22T00:57:45;96912.88;;;4.19;100.00
29045;BME280;16133;49.486;12.176;2023-04-22T01:00:13;96924.81;;;4.14;100.00
29045;BME280;16133;49.486;12.176;2023-04-22T01:02:39;96926.25;;;4.08;100.00
29045;BME280;16133;49.486;12.176;2023-04-22T01:05:05;96926.69;;;4.04;100.00
29045;BME280;16133;49.486;12.176;2023-04-22T01:07:30;96932.38;;;3.99;100.00
29045;BME280;16133;49.486;12.176;2023-04-22T01:09:56;96926.59;;;3.96;100.00
29045;BME280;16133;49.486;12.176;2023-04-22T01:12:21;96930.50;;;3.92;100.00
29045;BME280;16133;49.486;12.176;2023-04-22T01:14:47;96929.97;;;3.88;100.00
29045;BME280;16133;49.486;12.176;2023-04-22T01:17:13;96927.81;;;3.83;100.00
29045;BME280;16133;49.486;12.176;2023-04-22T01:19:40;96925.66;;;3.79;100.00
29045;BME280;16133;49.486;12.176;2023-04-22T01:22:06;96926.22;;;3.73;100.00
29045;BME280;16133;49.486;12.176;2023-04-22T01:24:32;96925.69;;;3.69;100.00
29045;BME280;16133;49.486;12.176;2023-04-22T01:26:58;96922.56;;;3.66;100.00
29045;BME280;16133;49.486;12.176;2023-04-22T01:29:24;96923.81;;;3.62;100.00
29045;BME280;16133;49.486;12.176;2023-04-22T01:31:50;96924.97;;;3.59;100.00
29045;BME280;16133;49.486;12.176;2023-04-22T01:34:16;96927.56;;;3.59;100.00
29045;BME280;16133;49.486;12.176;2023-04-22T01:36:43;96924.25;;;3.57;100.00
29045;BME280;16133;49.486;12.176;2023-04-22T01:39:08;96915.88;;;3.54;100.00
29045;BME280;16133;49.486;12.176;2023-04-22T01:41:34;96915.88;;;3.54;100.00
29045;BME280;16133;49.486;12.176;2023-04-22T01:44:02;96914.22;;;3.53;100.00
29045;BME280;16133;49.486;12.176;2023-04-22T01:48:58;96910.47;;;3.55;100.00
29045;BME280;16133;49.486;12.176;2023-04-22T01:51:24;96901.47;;;3.58;100.00
29045;BME280;16133;49.486;12.176;2023-04-22T01:53:50;96897.59;;;3.62;100.00
29045;BME280;16133;49.486;12.176;2023-04-22T01:56:16;96884.66;;;3.60;100.00
29045;BME280;16133;49.486;12.176;2023-04-22T01:58:41;96892.25;;;3.54;100.00
29045;BME280;16133;49.486;12.176;2023-04-22T02:01:11;96894.78;;;3.46;100.00
29045;BME280;16133;49.486;12.176;2023-04-22T02:03:37;96909.19;;;3.42;100.00
29045;BME280;16133;49.486;12.176;2023-04-22T02:06:02;96878.81;;;3.21;100.00
29045;BME280;16133;49.486;12.176;2023-04-22T02:08:28;96902.44;;;3.39;100.00
29045;BME280;16133;49.486;12.176;2023-04-22T02:10:53;96900.25;;;3.34;100.00
29045;BME280;16133;49.486;12.176;2023-04-22T02:13:19;96908.56;;;3.30;100.00
29045;BME280;16133;49.486;12.176;2023-04-22T02:15:44;96908.03;;;3.26;100.00
29045;BME280;16133;49.486;12.176;2023-04-22T02:18:09;96906.66;;;3.22;100.00
29045;BME280;16133;49.486;12.176;2023-04-22T02:20:36;96906.97;;;3.19;100.00
29045;BME280;16133;49.486;12.176;2023-04-22T02:23:02;96897.75;;;3.15;100.00
29045;BME280;16133;49.486;12.176;2023-04-22T02:25:28;96899.00;;;3.11;100.00
29045;BME280;16133;49.486;12.176;2023-04-22T02:27:54;96899.28;;;3.08;100.00
29045;BME280;16133;49.486;12.176;2023-04-22T02:30:20;96902.06;;;3.07;100.00
29045;BME280;16133;49.486;12.176;2023-04-22T02:32:45;96900.13;;;3.09;100.00
29045;BME280;16133;49.486;12.176;2023-04-22T02:35:11;96902.63;;;3.10;100.00
29045;BME280;16133;49.486;12.176;2023-04-22T02:37:37;96897.38;;;3.10;100.00
29045;BME280;16133;49.486;12.176;2023-04-22T02:40:03;96886.31;;;3.07;100.00
29045;BME280;16133;49.486;12.176;2023-04-22T02:42:28;96875.63;;;3.00;100.00
29045;BME280;16133;49.486;12.176;2023-04-22T02:44:54;96883.19;;;3.03;100.00
29045;BME280;16133;49.486;12.176;2023-04-22T02:47:20;96883.63;;;2.99;100.00
29045;BME280;16133;49.486;12.176;2023-04-22T02:49:45;96885.03;;;2.93;100.00
29045;BME280;16133;49.486;12.176;2023-04-22T02:52:10;96889.03;;;2.87;100.00
29045;BME280;16133;49.486;12.176;2023-04-22T02:54:36;96897.50;;;2.81;100.00
29045;BME280;16133;49.486;12.176;2023-04-22T02:57:01;96892.84;;;2.75;100.00
29045;BME280;16133;49.486;12.176;2023-04-22T02:59:27;96892.31;;;2.72;100.00
29045;BME280;16133;49.486;12.176;2023-04-22T03:01:52;96895.19;;;2.69;100.00
29045;BME280;16133;49.486;12.176;2023-04-22T03:04:18;96902.50;;;2.65;100.00
29045;BME280;16133;49.486;12.176;2023-04-22T03:06:47;96895.06;;;2.61;100.00
29045;BME280;16133;49.486;12.176;2023-04-22T03:09:12;96890.94;;;2.58;100.00
29045;BME280;16133;49.486;12.176;2023-04-22T03:11:38;96889.16;;;2.59;100.00
29045;BME280;16133;49.486;12.176;2023-04-22T03:14:03;96894.09;;;2.62;100.00
29045;BME280;16133;49.486;12.176;2023-04-22T03:16:28;96889.84;;;2.61;100.00
29045;BME280;16133;49.486;12.176;2023-04-22T03:18:54;96886.25;;;2.62;100.00
29045;BME280;16133;49.486;12.176;2023-04-22T03:21:19;96873.31;;;2.60;100.00
29045;BME280;16133;49.486;12.176;2023-04-22T03:23:45;96881.59;;;2.56;100.00
29045;BME280;16133;49.486;12.176;2023-04-22T03:26:10;96873.22;;;2.52;100.00
29045;BME280;16133;49.486;12.176;2023-04-22T03:28:37;96873.91;;;2.45;100.00
29045;BME280;16133;49.486;12.176;2023-04-22T03:31:03;96879.72;;;2.38;100.00
29045;BME280;16133;49.486;12.176;2023-04-22T03:33:28;96878.34;;;2.34;100.00
29045;BME280;16133;49.486;12.176;2023-04-22T03:35:53;96883.88;;;2.31;100.00
29045;BME280;16133;49.486;12.176;2023-04-22T03:38:19;96888.28;;;2.31;100.00
29045;BME280;16133;49.486;12.176;2023-04-22T03:40:44;96875.34;;;2.29;100.00
29045;BME280;16133;49.486;12.176;2023-04-22T03:43:10;96873.81;;;2.27;100.00
29045;BME280;16133;49.486;12.176;2023-04-22T03:45:35;96877.53;;;2.24;100.00
29045;BME280;16133;49.486;12.176;2023-04-22T03:48:01;96877.00;;;2.21;100.00
29045;BME280;16133;49.486;12.176;2023-04-22T03:50:26;96877.28;;;2.18;100.00
29045;BME280;16133;49.486;12.176;2023-04-22T03:52:51;96879.91;;;2.18;100.00
29045;BME280;16133;49.486;12.176;2023-04-22T03:55:17;96869.84;;;2.13;100.00
29045;BME280;16133;49.486;12.176;2023-04-22T03:57:42;96876.34;;;2.09;100.00
29045;BME280;16133;49.486;12.176;2023-04-22T04:00:08;96879.25;;;2.06;100.00
29045;BME280;16133;49.486;12.176;2023-04-22T04:02:33;96878.41;;;2.06;100.00
29045;BME280;16133;49.486;12.176;2023-04-22T04:04:58;96877.88;;;2.02;100.00
29045;BME280;16133;49.486;12.176;2023-04-22T04:07:24;96882.16;;;2.03;100.00
29045;BME280;16133;49.486;12.176;2023-04-22T04:09:49;96878.69;;;2.03;100.00
29045;BME280;16133;49.486;12.176;2023-04-22T04:12:15;96875.09;;;2.04;100.00
29045;BME280;16133;49.486;12.176;2023-04-22T04:14:40;96880.31;;;2.04;100.00
29045;BME280;16133;49.486;12.176;2023-04-22T04:17:05;96870.69;;;2.04;100.00
29045;BME280;16133;49.486;12.176;2023-04-22T04:19:33;96877.59;;;2.05;100.00
29045;BME280;16133;49.486;12.176;2023-04-22T04:21:58;96867.13;;;2.05;100.00
29045;BME280;16133;49.486;12.176;2023-04-22T04:24:24;96869.59;;;2.07;100.00
29045;BME280;16133;49.486;12.176;2023-04-22T04:26:50;96856.06;;;2.11;100.00
29045;BME280;16133;49.486;12.176;2023-04-22T04:29:15;96863.22;;;2.19;100.00
29045;BME280;16133;49.486;12.176;2023-04-22T04:31:40;96848.63;;;2.26;100.00
29045;BME280;16133;49.486;12.176;2023-04-22T04:34:06;96839.91;;;2.35;100.00
29045;BME280;16133;49.486;12.176;2023-04-22T04:36:32;96819.91;;;2.44;100.00
29045;BME280;16133;49.486;12.176;2023-04-22T04:38:57;96800.03;;;2.51;100.00
29045;BME280;16133;49.486;12.176;2023-04-22T04:41:22;96789.78;;;2.57;100.00
29045;BME280;16133;49.486;12.176;2023-04-22T04:43:51;96784.81;;;2.64;100.00
29045;BME280;16133;49.486;12.176;2023-04-22T04:46:16;96777.19;;;2.70;100.00
29045;BME280;16133;49.486;12.176;2023-04-22T04:48:42;96777.28;;;2.78;100.00
29045;BME280;16133;49.486;12.176;2023-04-22T04:51:10;96767.56;;;2.88;100.00
29045;BME280;16133;49.486;12.176;2023-04-22T04:53:35;96754.50;;;3.06;100.00
29045;BME280;16133;49.486;12.176;2023-04-22T04:56:01;96747.44;;;3.24;100.00
29045;BME280;16133;49.486;12.176;2023-04-22T04:58:26;96728.00;;;3.53;100.00
29045;BME280;16133;49.486;12.176;2023-04-22T05:00:52;96713.81;;;3.89;100.00
29045;BME280;16133;49.486;12.176;2023-04-22T05:03:17;96706.53;;;4.43;100.00
29045;BME280;16133;49.486;12.176;2023-04-22T05:05:42;96684.50;;;5.34;100.00
29045;BME280;16133;49.486;12.176;2023-04-22T05:08:10;96688.34;;;6.19;100.00
29045;BME280;16133;49.486;12.176;2023-04-22T05:10:35;96719.72;;;6.76;100.00
29045;BME280;16133;49.486;12.176;2023-04-22T05:13:01;96803.28;;;7.06;100.00
29045;BME280;16133;49.486;12.176;2023-04-22T05:15:26;96863.13;;;7.05;100.00
29045;BME280;16133;49.486;12.176;2023-04-22T05:17:52;96897.25;;;7.15;100.00
29045;BME280;16133;49.486;12.176;2023-04-22T05:20:18;96916.56;;;7.54;100.00
29045;BME280;16133;49.486;12.176;2023-04-22T05:22:43;96955.72;;;8.27;100.00
29045;BME280;16133;49.486;12.176;2023-04-22T05:25:10;96974.28;;;9.02;100.00
29045;BME280;16133;49.486;12.176;2023-04-22T05:27:35;96985.00;;;9.52;100.00
29045;BME280;16133;49.486;12.176;2023-04-22T05:30:01;96987.06;;;9.86;100.00
29045;BME280;16133;49.486;12.176;2023-04-22T05:32:26;96990.16;;;10.19;100.00
29045;BME280;16133;49.486;12.176;2023-04-22T05:34:51;96989.84;;;10.50;100.00
29045;BME280;16133;49.486;12.176;2023-04-22T05:37:17;96996.59;;;10.74;100.00
29045;BME280;16133;49.486;12.176;2023-04-22T05:39:42;96999.53;;;11.07;99.19
29045;BME280;16133;49.486;12.176;2023-04-22T05:42:07;97003.34;;;11.53;97.39
29045;BME280;16133;49.486;12.176;2023-04-22T05:44:33;97002.31;;;11.88;92.82
29045;BME280;16133;49.486;12.176;2023-04-22T05:46:58;97003.22;;;12.09;90.61
29045;BME280;16133;49.486;12.176;2023-04-22T05:49:24;97005.66;;;12.04;88.29
29045;BME280;16133;49.486;12.176;2023-04-22T05:51:52;97011.69;;;11.78;87.74
29045;BME280;16133;49.486;12.176;2023-04-22T05:54:17;97013.63;;;11.35;88.40
29045;BME280;16133;49.486;12.176;2023-04-22T05:56:43;97006.78;;;10.91;90.07
29045;BME280;16133;49.486;12.176;2023-04-22T05:59:08;97006.97;;;10.47;91.51
29045;BME280;16133;49.486;12.176;2023-04-22T06:01:35;97008.97;;;10.09;91.15
29045;BME280;16133;49.486;12.176;2023-04-22T06:04:02;97005.81;;;9.70;91.75
29045;BME280;16133;49.486;12.176;2023-04-22T06:06:29;97006.94;;;9.46;92.26
29045;BME280;16133;49.486;12.176;2023-04-22T06:08:55;97006.19;;;9.23;95.02
29045;BME280;16133;49.486;12.176;2023-04-22T06:11:21;97006.44;;;9.13;96.99
29045;BME280;16133;49.486;12.176;2023-04-22T06:13:46;96991.66;;;9.04;97.23
29045;BME280;16133;49.486;12.176;2023-04-22T06:16:11;97008.06;;;9.15;97.86
29045;BME280;16133;49.486;12.176;2023-04-22T06:18:37;96998.41;;;9.22;98.46
29045;BME280;16133;49.486;12.176;2023-04-22T06:21:02;96997.50;;;9.29;99.79
29045;BME280;16133;49.486;12.176;2023-04-22T06:23:28;97013.47;;;9.36;100.00
29045;BME280;16133;49.486;12.176;2023-04-22T06:25:53;97004.09;;;9.48;99.28
29045;BME280;16133;49.486;12.176;2023-04-22T06:28:19;97013.59;;;9.57;97.69
29045;BME280;16133;49.486;12.176;2023-04-22T06:30:44;97014.94;;;9.68;96.35
29045;BME280;16133;49.486;12.176;2023-04-22T06:33:09;97000.50;;;9.70;95.72
29045;BME280;16133;49.486;12.176;2023-04-22T06:35:35;97012.56;;;9.87;96.22
29045;BME280;16133;49.486;12.176;2023-04-22T06:38:00;97012.38;;;10.03;96.04
29045;BME280;16133;49.486;12.176;2023-04-22T06:40:26;97010.91;;;10.16;93.83
29045;BME280;16133;49.486;12.176;2023-04-22T06:42:51;97014.13;;;10.32;94.11
29045;BME280;16133;49.486;12.176;2023-04-22T06:45:16;97020.03;;;10.49;93.02
29045;BME280;16133;49.486;12.176;2023-04-22T06:47:42;97017.31;;;10.64;92.51
29045;BME280;16133;49.486;12.176;2023-04-22T06:50:08;97027.03;;;10.78;91.68
29045;BME280;16133;49.486;12.176;2023-04-22T06:52:34;97025.41;;;10.98;92.35
29045;BME280;16133;49.486;12.176;2023-04-22T06:54:59;97010.78;;;11.09;90.44
29045;BME280;16133;49.486;12.176;2023-04-22T06:57:26;97013.00;;;11.33;88.42
29045;BME280;16133;49.486;12.176;2023-04-22T06:59:52;97013.09;;;11.46;86.30
29045;BME280;16133;49.486;12.176;2023-04-22T07:02:17;97016.22;;;11.56;84.52
29045;BME280;16133;49.486;12.176;2023-04-22T07:04:42;97009.53;;;11.67;84.03
29045;BME280;16133;49.486;12.176;2023-04-22T07:07:08;97011.19;;;11.68;82.80
29045;BME280;16133;49.486;12.176;2023-04-22T07:09:33;97005.31;;;11.72;81.97
29045;BME280;16133;49.486;12.176;2023-04-22T07:12:00;97018.25;;;11.82;80.95
29045;BME280;16133;49.486;12.176;2023-04-22T07:14:25;97029.97;;;11.94;81.27
29045;BME280;16133;49.486;12.176;2023-04-22T07:16:51;97027.75;;;12.04;81.68
29045;BME280;16133;49.486;12.176;2023-04-22T07:19:16;97017.19;;;12.17;83.68
29045;BME280;16133;49.486;12.176;2023-04-22T07:21:42;97018.03;;;12.31;84.39
29045;BME280;16133;49.486;12.176;2023-04-22T07:24:07;97018.50;;;12.41;82.51
29045;BME280;16133;49.486;12.176;2023-04-22T07:26:36;97023.63;;;12.49;81.86
29045;BME280;16133;49.486;12.176;2023-04-22T07:29:02;97018.97;;;12.64;81.53
29045;BME280;16133;49.486;12.176;2023-04-22T07:31:28;97004.84;;;12.70;81.62
29045;BME280;16133;49.486;12.176;2023-04-22T07:33:53;97020.84;;;12.90;81.27
29045;BME280;16133;49.486;12.176;2023-04-22T07:36:18;97020.63;;;13.05;79.86
29045;BME280;16133;49.486;12.176;2023-04-22T07:38:44;97010.03;;;13.18;79.26
29045;BME280;16133;49.486;12.176;2023-04-22T07:41:09;97008.56;;;13.35;78.46
29045;BME280;16133;49.486;12.176;2023-04-22T07:43:34;97006.91;;;13.47;77.68
29045;BME280;16133;49.486;12.176;2023-04-22T07:46:00;97001.16;;;13.57;76.64
29045;BME280;16133;49.486;12.176;2023-04-22T07:48:25;96999.66;;;13.80;76.01
29045;BME280;16133;49.486;12.176;2023-04-22T07:50:51;96994.69;;;13.97;74.36
29045;BME280;16133;49.486;12.176;2023-04-22T07:53:16;96994.19;;;14.20;74.88
29045;BME280;16133;49.486;12.176;2023-04-22T07:55:41;96992.72;;;14.37;74.04
29045;BME280;16133;49.486;12.176;2023-04-22T07:58:07;96983.00;;;14.43;71.23
29045;BME280;16133;49.486;12.176;2023-04-22T08:00:33;97000.75;;;14.62;70.35
29045;BME280;16133;49.486;12.176;2023-04-22T08:02:59;97006.06;;;14.68;70.59
29045;BME280;16133;49.486;12.176;2023-04-22T08:05:24;96968.66;;;14.68;70.82
29045;BME280;16133;49.486;12.176;2023-04-22T08:07:50;96986.78;;;14.91;68.23
29045;BME280;16133;49.486;12.176;2023-04-22T08:10:15;96986.69;;;15.04;67.53
29045;BME280;16133;49.486;12.176;2023-04-22T08:12:40;96954.69;;;14.98;67.71
29045;BME280;16133;49.486;12.176;2023-04-22T08:15:06;96962.00;;;15.09;67.98
29045;BME280;16133;49.486;12.176;2023-04-22T08:17:32;96984.19;;;15.34;67.37
29045;BME280;16133;49.486;12.176;2023-04-22T08:19:57;96970.59;;;15.36;67.04
29045;BME280;16133;49.486;12.176;2023-04-22T08:22:22;96975.00;;;15.48;67.64
29045;BME280;16133;49.486;12.176;2023-04-22T08:24:48;96966.34;;;15.53;67.67
29045;BME280;16133;49.486;12.176;2023-04-22T08:27:13;96961.97;;;15.58;67.06
29045;BME280;16133;49.486;12.176;2023-04-22T08:29:38;96937.75;;;15.53;66.96
29045;BME280;16133;49.486;12.176;2023-04-22T08:32:04;96971.94;;;15.88;66.51
29045;BME280;16133;49.486;12.176;2023-04-22T08:34:29;96955.56;;;15.96;64.28
29045;BME280;16133;49.486;12.176;2023-04-22T08:36:54;96956.91;;;16.05;63.90
29045;BME280;16133;49.486;12.176;2023-04-22T08:39:19;96958.81;;;16.16;63.20
29045;BME280;16133;49.486;12.176;2023-04-22T08:41:45;96969.97;;;16.31;62.23
29045;BME280;16133;49.486;12.176;2023-04-22T08:44:12;96972.81;;;16.48;62.96
29045;BME280;16133;49.486;12.176;2023-04-22T08:46:39;96929.69;;;16.38;60.60
29045;BME280;16133;49.486;12.176;2023-04-22T08:49:05;96900.19;;;16.26;59.60
29045;BME280;16133;49.486;12.176;2023-04-22T08:51:30;96977.41;;;16.89;58.32
29045;BME280;16133;49.486;12.176;2023-04-22T08:53:58;96969.72;;;16.92;57.27
29045;BME280;16133;49.486;12.176;2023-04-22T08:56:23;96964.94;;;16.94;57.38
29045;BME280;16133;49.486;12.176;2023-04-22T08:58:49;96947.00;;;16.95;55.79
29045;BME280;16133;49.486;12.176;2023-04-22T09:01:15;96974.28;;;17.15;55.14
29045;BME280;16133;49.486;12.176;2023-04-22T09:03:42;96963.69;;;17.20;54.82
29045;BME280;16133;49.486;12.176;2023-04-22T09:06:09;96969.16;;;17.37;56.16
29045;BME280;16133;49.486;12.176;2023-04-22T09:08:35;96970.59;;;17.51;56.17
29045;BME280;16133;49.486;12.176;2023-04-22T09:11:00;96964.78;;;17.65;55.33
29045;BME280;16133;49.486;12.176;2023-04-22T09:13:27;96972.81;;;17.77;54.64
29045;BME280;16133;49.486;12.176;2023-04-22T09:15:53;96951.56;;;17.87;54.34
29045;BME280;16133;49.486;12.176;2023-04-22T09:18:19;96944.25;;;18.11;54.74
29045;BME280;16133;49.486;12.176;2023-04-22T09:20:48;96945.06;;;18.40;53.79
29045;BME280;16133;49.486;12.176;2023-04-22T09:23:14;96961.44;;;18.67;53.87
29045;BME280;16133;49.486;12.176;2023-04-22T09:25:40;96968.00;;;18.87;52.14
29045;BME280;16133;49.486;12.176;2023-04-22T09:28:10;96963.47;;;19.04;51.68
29045;BME280;16133;49.486;12.176;2023-04-22T09:30:36;96955.16;;;19.06;49.76
29045;BME280;16133;49.486;12.176;2023-04-22T09:33:03;96941.47;;;18.91;49.45
29045;BME280;16133;49.486;12.176;2023-04-22T09:35:34;96958.75;;;18.95;50.98
29045;BME280;16133;49.486;12.176;2023-04-22T09:38:01;96961.34;;;19.06;51.45
29045;BME280;16133;49.486;12.176;2023-04-22T09:40:29;96953.22;;;19.18;52.15
29045;BME280;16133;49.486;12.176;2023-04-22T09:42:56;96952.94;;;19.36;51.55
29045;BME280;16133;49.486;12.176;2023-04-22T09:45:27;96954.53;;;19.49;51.24
29045;BME280;16133;49.486;12.176;2023-04-22T09:47:54;96950.34;;;19.58;51.28
29045;BME280;16133;49.486;12.176;2023-04-22T09:50:23;96941.59;;;19.68;51.13
29045;BME280;16133;49.486;12.176;2023-04-22T09:52:57;96949.25;;;19.76;50.01
29045;BME280;16133;49.486;12.176;2023-04-22T09:55:23;96929.66;;;19.59;49.58
29045;BME280;16133;49.486;12.176;2023-04-22T09:57:51;96930.59;;;19.69;51.06
29045;BME280;16133;49.486;12.176;2023-04-22T10:00:16;96946.56;;;19.76;50.33
29045;BME280;16133;49.486;12.176;2023-04-22T10:02:43;96913.53;;;19.64;50.57
29045;BME280;16133;49.486;12.176;2023-04-22T10:05:08;96913.53;;;19.64;50.89
29045;BME280;16133;49.486;12.176;2023-04-22T10:07:34;96927.94;;;19.74;50.41
29045;BME280;16133;49.486;12.176;2023-04-22T10:10:01;96910.44;;;19.72;50.54
29045;BME280;16133;49.486;12.176;2023-04-22T10:12:27;96939.19;;;19.88;50.06
29045;BME280;16133;49.486;12.176;2023-04-22T10:14:52;96926.53;;;19.88;50.39
29045;BME280;16133;49.486;12.176;2023-04-22T10:17:18;96929.03;;;19.95;50.03
29045;BME280;16133;49.486;12.176;2023-04-22T10:19:46;96921.84;;;20.00;49.26
29045;BME280;16133;49.486;12.176;2023-04-22T10:22:12;96903.75;;;19.96;49.68
29045;BME280;16133;49.486;12.176;2023-04-22T10:24:38;96913.44;;;19.97;49.69
29045;BME280;16133;49.486;12.176;2023-04-22T10:27:04;96908.03;;;19.75;48.53
29045;BME280;16133;49.486;12.176;2023-04-22T10:29:36;96914.69;;;19.68;48.38
29045;BME280;16133;49.486;12.176;2023-04-22T10:32:23;96911.13;;;19.62;50.78
29045;BME280;16133;49.486;12.176;2023-04-22T10:35:06;96915.22;;;19.48;49.28
29045;BME280;16133;49.486;12.176;2023-04-22T10:37:32;96910.47;;;19.38;49.69
29045;BME280;16133;49.486;12.176;2023-04-22T10:40:16;96908.59;;;19.39;48.83
29045;BME280;16133;49.486;12.176;2023-04-22T10:42:48;96906.75;;;19.39;47.46
29045;BME280;16133;49.486;12.176;2023-04-22T10:45:14;96908.19;;;19.30;48.88
29045;BME280;16133;49.486;12.176;2023-04-22T10:47:40;96901.91;;;19.41;48.99
29045;BME280;16133;49.486;12.176;2023-04-22T10:50:30;96903.88;;;19.46;49.25
29045;BME280;16133;49.486;12.176;2023-04-22T10:52:57;96898.56;;;19.51;49.45
29045;BME280;16133;49.486;12.176;2023-04-22T10:55:24;96898.91;;;19.54;48.52
29045;BME280;16133;49.486;12.176;2023-04-22T10:57:51;96873.97;;;19.42;48.77
29045;BME280;16133;49.486;12.176;2023-04-22T11:00:25;96894.16;;;19.62;48.44
29045;BME280;16133;49.486;12.176;2023-04-22T11:05:22;96892.59;;;19.66;48.71
29045;BME280;16133;49.486;12.176;2023-04-22T11:07:49;96881.13;;;19.53;49.54
29045;BME280;16133;49.486;12.176;2023-04-22T11:12:56;96875.44;;;19.50;48.10
29045;BME280;16133;49.486;12.176;2023-04-22T11:15:22;96891.06;;;19.75;47.92
29045;BME280;16133;49.486;12.176;2023-04-22T11:17:52;96894.47;;;19.87;48.11
29045;BME280;16133;49.486;12.176;2023-04-22T11:20:18;96879.50;;;19.96;46.99
29045;BME280;16133;49.486;12.176;2023-04-22T11:22:45;96886.88;;;20.05;47.30
29045;BME280;16133;49.486;12.176;2023-04-22T11:25:11;96881.47;;;20.05;46.75
29045;BME280;16133;49.486;12.176;2023-04-22T11:27:38;96876.09;;;20.05;46.71
29045;BME280;16133;49.486;12.176;2023-04-22T11:30:08;96876.47;;;20.14;46.07
29045;BME280;16133;49.486;12.176;2023-04-22T11:32:35;96865.94;;;20.13;45.88
29045;BME280;16133;49.486;12.176;2023-04-22T11:35:05;96870.34;;;20.24;45.61
29045;BME280;16133;49.486;12.176;2023-04-22T11:37:42;96865.47;;;20.21;43.55
29045;BME280;16133;49.486;12.176;2023-04-22T11:40:16;96867.94;;;20.22;44.02
29045;BME280;16133;49.486;12.176;2023-04-22T11:42:42;96868.19;;;20.21;43.79
29045;BME280;16133;49.486;12.176;2023-04-22T11:45:08;96874.97;;;20.23;44.20
29045;BME280;16133;49.486;12.176;2023-04-22T11:47:33;96868.00;;;20.27;45.49
29045;BME280;16133;49.486;12.176;2023-04-22T11:50:01;96863.28;;;20.39;45.14
29045;BME280;16133;49.486;12.176;2023-04-22T11:55:28;96856.38;;;20.48;44.46
29045;BME280;16133;49.486;12.176;2023-04-22T11:57:59;96849.47;;;20.63;43.65
29045;BME280;16133;49.486;12.176;2023-04-22T12:00:35;96859.09;;;20.80;43.41
29045;BME280;16133;49.486;12.176;2023-04-22T12:03:03;96850.75;;;20.87;42.58
29045;BME280;16133;49.486;12.176;2023-04-22T12:05:38;96848.41;;;21.00;43.93
29045;BME280;16133;49.486;12.176;2023-04-22T12:08:15;96839.38;;;21.12;43.83
29045;BME280;16133;49.486;12.176;2023-04-22T12:10:43;96823.66;;;21.09;42.79
29045;BME280;16133;49.486;12.176;2023-04-22T12:13:20;96841.66;;;21.35;43.64
29045;BME280;16133;49.486;12.176;2023-04-22T12:15:45;96839.03;;;21.45;42.56
29045;BME280;16133;49.486;12.176;2023-04-22T12:18:11;96834.78;;;21.59;41.66
29045;BME280;16133;49.486;12.176;2023-04-22T12:20:38;96832.13;;;21.74;42.06
29045;BME280;16133;49.486;12.176;2023-04-22T12:23:03;96827.06;;;21.88;41.05
29045;BME280;16133;49.486;12.176;2023-04-22T12:25:29;96823.88;;;21.96;41.99
29045;BME280;16133;49.486;12.176;2023-04-22T12:27:55;96826.34;;;22.13;41.93
29045;BME280;16133;49.486;12.176;2023-04-22T12:30:21;96821.22;;;22.11;42.07
29045;BME280;16133;49.486;12.176;2023-04-22T12:32:48;96821.78;;;22.18;41.78
29045;BME280;16133;49.486;12.176;2023-04-22T12:35:14;96822.88;;;22.32;41.63
29045;BME280;16133;49.486;12.176;2023-04-22T12:37:39;96824.53;;;22.64;40.99
29045;BME280;16133;49.486;12.176;2023-04-22T12:40:05;96822.13;;;22.82;40.37
29045;BME280;16133;49.486;12.176;2023-04-22T12:42:31;96825.34;;;23.05;40.45
29045;BME280;16133;49.486;12.176;2023-04-22T12:44:57;96799.09;;;23.05;38.13
29045;BME280;16133;49.486;12.176;2023-04-22T12:47:22;96823.69;;;23.24;39.18
29045;BME280;16133;49.486;12.176;2023-04-22T12:49:48;96815.25;;;23.41;40.49
29045;BME280;16133;49.486;12.176;2023-04-22T12:52:13;96812.53;;;23.51;40.00
29045;BME280;16133;49.486;12.176;2023-04-22T12:54:39;96773.56;;;23.31;39.36
29045;BME280;16133;49.486;12.176;2023-04-22T12:57:04;96812.78;;;23.54;39.43